Time;durP1;ratioP1;P1;durP2;ratioP2;P2;SDS_P1;SDS_P2;PMS_P1;PMS_P2;Temp;Humidity;BMP_temperature;BMP_pressure;BME280_temperature;BME280_humidity;BME280_pressure;Samples;Min_cycle;Max_cycle;Signal;HPM_P1;HPM_P2
2022/03/21 00:00:46;;;;;;;20.67;17.03;;;9.10;99.90;;;;;;4908055;29;20548;-83
2022/03/21 00:03:32;;;;;;;20.33;16.10;;;7.50;99.90;;;;;;4906290;29;20499;-84
2022/03/21 00:06:23;;;;;;;20.00;16.97;;;8.80;99.90;;;;;;4922623;29;20440;-83
2022/03/21 00:08:55;;;;;;;22.00;15.50;;;9.20;99.90;;;;;;4906987;29;20461;-84
2022/03/21 00:11:21;;;;;;;19.53;15.97;;;10.80;99.90;;;;;;4922123;29;20510;-82
2022/03/21 00:13:53;;;;;;;22.13;18.13;;;8.90;99.90;;;;;;4896604;29;20940;-83
2022/03/21 00:16:19;;;;;;;22.07;17.23;;;10.40;99.90;;;;;;4910906;29;20439;-83
2022/03/21 00:18:49;;;;;;;22.07;16.70;;;8.90;99.90;;;;;;4914433;29;20427;-83
2022/03/21 00:21:17;;;;;;;21.97;17.97;;;10.20;99.90;;;;;;4916646;29;20455;-83
2022/03/21 00:23:50;;;;;;;22.33;19.03;;;8.80;99.90;;;;;;4917980;29;20711;-83
2022/03/21 00:26:42;;;;;;;20.70;15.23;;;8.50;99.90;;;;;;4928970;29;20443;-83
2022/03/21 00:29:09;;;;;;;22.90;13.47;;;8.90;99.90;;;;;;4886846;29;20787;-84
2022/03/21 00:31:37;;;;;;;18.50;14.83;;;11.00;99.90;;;;;;4912383;29;20947;-83
2022/03/21 00:34:40;;;;;;;15.67;14.10;;;10.50;99.90;;;;;;4910804;29;20956;-83
2022/03/21 00:37:07;;;;;;;19.70;15.50;;;8.60;99.90;;;;;;4905825;29;21182;-83
2022/03/21 00:39:33;;;;;;;25.13;16.90;;;8.90;99.90;;;;;;4923977;29;20446;-83
2022/03/21 00:41:58;;;;;;;18.60;15.67;;;9.50;99.90;;;;;;4913580;29;20530;-83
2022/03/21 00:44:27;;;;;;;17.17;15.33;;;8.60;99.90;;;;;;4907593;29;20192;-83
2022/03/21 00:46:53;;;;;;;16.97;13.83;;;8.10;99.90;;;;;;4913987;29;20737;-84
2022/03/21 00:49:21;;;;;;;20.97;15.20;;;9.90;99.90;;;;;;4917401;29;20436;-82
2022/03/21 00:51:47;;;;;;;23.97;16.17;;;9.00;99.90;;;;;;4915410;29;20212;-83
2022/03/21 00:54:15;;;;;;;18.53;15.37;;;8.50;99.90;;;;;;4910533;29;20516;-83
2022/03/21 00:56:41;;;;;;;20.90;16.70;;;8.80;99.90;;;;;;4914602;29;20207;-83
2022/03/21 00:59:07;;;;;;;24.37;16.43;;;8.70;99.90;;;;;;4919579;29;20423;-83
2022/03/21 01:01:53;;;;;;;19.10;15.87;;;8.60;99.90;;;;;;4903700;29;20200;-83
2022/03/21 01:04:19;;;;;;;22.60;16.10;;;7.00;99.90;;;;;;4893130;29;20960;-83
2022/03/21 01:06:44;;;;;;;23.03;17.13;;;8.50;99.90;;;;;;4914297;29;20503;-84
2022/03/21 01:09:19;;;;;;;22.53;18.07;;;8.50;99.90;;;;;;4921925;29;20200;-84
2022/03/21 01:11:45;;;;;;;30.67;18.37;;;8.40;99.90;;;;;;4888330;29;20236;-83
2022/03/21 01:14:12;;;;;;;24.10;16.80;;;8.90;99.90;;;;;;4900236;29;20447;-84
2022/03/21 01:16:38;;;;;;;20.73;15.70;;;8.70;99.90;;;;;;4898780;29;20926;-82
2022/03/21 01:19:06;;;;;;;23.07;17.10;;;8.20;99.90;;;;;;4930508;29;20805;-83
2022/03/21 01:21:33;;;;;;;20.83;16.13;;;8.80;99.90;;;;;;4890510;29;20441;-82
2022/03/21 01:24:01;;;;;;;22.37;17.67;;;8.40;99.90;;;;;;4929584;29;20431;-82
2022/03/21 01:26:27;;;;;;;24.80;17.13;;;8.50;99.90;;;;;;4912133;29;20518;-83
2022/03/21 01:28:53;;;;;;;20.83;15.50;;;8.60;99.90;;;;;;4912191;29;20515;-84
2022/03/21 01:31:19;;;;;;;20.33;17.10;;;9.40;99.90;;;;;;4917730;29;20733;-84
2022/03/21 01:33:48;;;;;;;19.43;15.70;;;8.70;99.90;;;;;;4930493;29;20586;-84
2022/03/21 01:36:14;;;;;;;21.50;16.73;;;8.70;99.90;;;;;;4929645;23;20491;-88
2022/03/21 01:38:39;;;;;;;17.57;15.00;;;9.60;99.90;;;;;;4899963;29;20448;-89
2022/03/21 01:41:05;;;;;;;19.57;14.83;;;8.70;99.90;;;;;;4929066;29;20191;-88
2022/03/21 01:43:31;;;;;;;24.63;18.67;;;8.70;99.90;;;;;;4901838;29;20192;-89
2022/03/21 01:45:56;;;;;;;21.07;15.63;;;8.00;99.90;;;;;;4908094;29;20571;-88
2022/03/21 01:48:22;;;;;;;21.97;16.17;;;8.20;99.90;;;;;;4917150;29;20187;-88
2022/03/21 01:50:52;;;;;;;23.27;16.83;;;8.70;99.90;;;;;;4911542;29;20213;-89
2022/03/21 01:56:21;;;;;;;21.97;15.40;;;9.00;99.90;;;;;;4919592;29;20421;-89
2022/03/21 01:58:49;;;;;;;20.53;15.20;;;9.60;99.90;;;;;;4898571;29;20468;-88
2022/03/21 02:01:18;;;;;;;15.40;13.60;;;9.50;99.90;;;;;;4938433;29;20420;-88
2022/03/21 02:03:45;;;;;;;16.53;14.73;;;8.60;99.90;;;;;;4904774;29;20996;-89
2022/03/21 02:06:17;;;;;;;20.60;15.27;;;9.90;99.90;;;;;;4904704;29;20443;-88
2022/03/21 02:08:44;;;;;;;20.80;14.70;;;8.30;99.90;;;;;;4922960;29;20459;-88
2022/03/21 02:11:10;;;;;;;20.03;14.87;;;8.30;99.90;;;;;;4939078;29;20422;-89
2022/03/21 02:13:45;;;;;;;19.07;14.90;;;11.10;99.90;;;;;;4929117;29;20467;-89
2022/03/21 02:16:19;;;;;;;30.57;16.40;;;8.10;99.90;;;;;;4903302;29;20465;-88
2022/03/21 02:18:46;;;;;;;22.77;16.20;;;11.20;99.90;;;;;;4922627;29;20419;-89
2022/03/21 02:21:21;;;;;;;21.87;16.37;;;8.30;99.90;;;;;;4905052;29;20452;-89
2022/03/21 02:23:56;;;;;;;23.57;17.77;;;8.20;99.90;;;;;;4902881;29;20433;-89
2022/03/21 02:26:22;;;;;;;25.30;18.83;;;8.30;99.90;;;;;;4903756;29;20432;-88
2022/03/21 02:28:50;;;;;;;27.07;17.63;;;8.20;99.90;;;;;;4922512;29;20419;-88
2022/03/21 02:31:20;;;;;;;20.77;16.80;;;8.40;99.90;;;;;;4903038;29;20438;-89
2022/03/21 02:33:54;;;;;;;26.83;17.53;;;9.00;99.90;;;;;;4921488;29;20523;-89
2022/03/21 02:36:21;;;;;;;22.57;16.07;;;6.30;99.90;;;;;;4905806;29;20464;-89
2022/03/21 02:38:54;;;;;;;22.67;17.67;;;8.00;99.90;;;;;;4922551;29;20427;-89
2022/03/21 02:41:24;;;;;;;27.07;19.37;;;7.90;99.90;;;;;;4882923;29;20421;-89
2022/03/21 02:44:00;;;;;;;24.33;17.60;;;8.20;99.90;;;;;;4920491;29;20432;-90
2022/03/21 02:46:26;;;;;;;23.33;18.30;;;7.90;99.90;;;;;;4902589;29;20492;-90
2022/03/21 02:48:59;;;;;;;22.10;16.70;;;10.70;99.90;;;;;;4902415;29;20489;-89
2022/03/21 02:51:30;;;;;;;28.33;20.53;;;9.10;99.90;;;;;;4903123;29;20443;-88
2022/03/21 02:53:56;;;;;;;24.30;18.77;;;8.70;99.90;;;;;;4903175;29;20441;-90
2022/03/21 02:56:34;;;;;;;26.90;17.80;;;6.80;99.90;;;;;;4933867;29;20460;-89
2022/03/21 02:59:00;;;;;;;26.27;16.70;;;8.40;99.90;;;;;;4916358;29;20440;-89
2022/03/21 03:01:26;;;;;;;23.67;17.73;;;10.00;99.90;;;;;;4935184;29;20443;-89
2022/03/21 03:03:53;;;;;;;20.97;15.57;;;7.60;99.90;;;;;;4901855;29;20500;-89
2022/03/21 03:06:19;;;;;;;20.93;17.37;;;7.10;99.90;;;;;;4899768;29;20763;-89
2022/03/21 03:08:45;;;;;;;24.63;18.50;;;7.20;99.90;;;;;;4919706;29;20432;-89
2022/03/21 03:11:16;;;;;;;25.70;18.40;;;7.70;99.90;;;;;;4923276;29;20427;-90
2022/03/21 03:13:42;;;;;;;26.83;17.47;;;9.20;99.90;;;;;;4903001;29;20502;-89
2022/03/21 03:16:07;;;;;;;27.53;18.27;;;7.30;99.90;;;;;;4921322;29;20424;-90
2022/03/21 03:18:36;;;;;;;27.43;17.53;;;7.50;99.90;;;;;;4924716;29;20440;-89
2022/03/21 03:21:02;;;;;;;24.27;18.50;;;9.40;99.90;;;;;;4906153;29;20171;-89
2022/03/21 03:23:31;;;;;;;32.53;20.10;;;7.30;99.90;;;;;;4940236;29;20443;-89
2022/03/21 03:26:05;;;;;;;31.70;22.60;;;7.00;99.90;;;;;;4923690;29;20432;-89
2022/03/21 03:28:35;;;;;;;40.73;25.43;;;6.70;99.90;;;;;;4906185;29;20427;-90
2022/03/21 03:31:03;;;;;;;35.67;23.80;;;8.40;99.90;;;;;;4905391;29;20437;-89
2022/03/21 03:33:29;;;;;;;32.23;25.07;;;7.10;99.90;;;;;;4940558;29;20472;-90
2022/03/21 03:35:56;;;;;;;32.97;23.77;;;6.50;99.90;;;;;;4906509;29;20451;-89
2022/03/21 03:38:48;;;;;;;32.47;22.77;;;8.30;99.90;;;;;;4923775;29;20186;-89
2022/03/21 03:41:15;;;;;;;33.27;24.00;;;6.90;99.90;;;;;;4902887;29;20169;-89
2022/03/21 03:43:43;;;;;;;29.67;21.47;;;8.10;99.90;;;;;;4923005;29;20443;-89
2022/03/21 03:46:09;;;;;;;29.27;23.50;;;8.10;99.90;;;;;;4905580;29;20464;-89
2022/03/21 03:48:36;;;;;;;36.47;25.87;;;6.80;99.90;;;;;;4940221;29;20184;-89
2022/03/21 03:51:06;;;;;;;36.17;24.43;;;8.50;99.90;;;;;;4904068;29;20449;-88
2022/03/21 03:53:33;;;;;;;34.20;23.03;;;6.40;99.90;;;;;;4922698;29;20475;-89
2022/03/21 03:56:13;;;;;;;28.93;19.57;;;9.30;99.90;;;;;;4905380;29;20500;-88
2022/03/21 03:58:49;;;;;;;23.97;18.43;;;6.80;99.90;;;;;;4920227;29;20412;-88
2022/03/21 04:01:15;;;;;;;28.57;20.17;;;6.00;99.90;;;;;;4920515;29;20400;-89
2022/03/21 04:03:47;;;;;;;25.07;17.93;;;7.20;99.90;;;;;;4923306;29;20439;-89
2022/03/21 04:06:21;;;;;;;23.07;18.83;;;7.00;99.90;;;;;;4886221;29;20494;-90
2022/03/21 04:08:52;;;;;;;21.67;16.27;;;5.80;99.90;;;;;;4885510;29;20429;-88
2022/03/21 04:11:18;;;;;;;24.23;18.10;;;9.20;99.90;;;;;;4910759;29;20436;-88
2022/03/21 04:13:48;;;;;;;27.45;17.63;;;6.50;99.90;;;;;;4923710;29;20476;-88
2022/03/21 04:16:16;;;;;;;22.13;17.55;;;6.60;99.90;;;;;;4898479;29;20212;-88
2022/03/21 04:18:44;;;;;;;22.70;15.93;;;7.40;99.90;;;;;;4939334;29;20187;-89
2022/03/21 04:21:10;;;;;;;25.80;18.83;;;6.40;99.90;;;;;;4903746;29;20456;-87
2022/03/21 04:23:40;;;;;;;25.63;17.77;;;7.40;99.90;;;;;;4938329;29;20184;-89
2022/03/21 04:26:06;;;;;;;29.13;19.30;;;6.40;99.90;;;;;;4904236;29;20428;-89
2022/03/21 04:28:33;;;;;;;21.43;16.80;;;4.80;99.90;;;;;;4939214;29;20432;-89
2022/03/21 04:30:59;;;;;;;20.40;17.13;;;6.60;99.90;;;;;;4906008;29;20456;-89
2022/03/21 04:33:25;;;;;;;30.17;17.57;;;7.00;99.90;;;;;;4922707;29;20547;-89
2022/03/21 04:35:54;;;;;;;23.10;17.90;;;6.10;99.90;;;;;;4914291;29;20429;-88
2022/03/21 04:38:20;;;;;;;25.10;19.57;;;6.80;99.90;;;;;;4922531;29;20404;-89
2022/03/21 04:40:50;;;;;;;24.57;19.00;;;8.70;99.90;;;;;;4903727;29;20429;-88
2022/03/21 04:43:20;;;;;;;22.10;17.40;;;9.20;99.90;;;;;;4939621;29;20436;-88
2022/03/21 04:45:49;;;;;;;31.20;21.27;;;8.80;99.90;;;;;;4904417;29;20428;-87
2022/03/21 04:48:18;;;;;;;23.83;18.37;;;8.90;99.90;;;;;;4907322;29;20444;-89
2022/03/21 04:50:44;;;;;;;24.33;18.83;;;7.30;99.90;;;;;;4904093;29;20428;-89
2022/03/21 04:53:13;;;;;;;25.97;18.37;;;6.50;99.90;;;;;;4940120;29;20480;-89
2022/03/21 04:55:42;;;;;;;29.83;21.80;;;6.60;99.90;;;;;;4904452;29;20425;-89
2022/03/21 04:58:21;;;;;;;27.03;19.10;;;7.30;99.90;;;;;;4938047;29;20447;-88
2022/03/21 05:00:49;;;;;;;22.00;18.23;;;7.00;99.90;;;;;;4918592;29;20428;-87
2022/03/21 05:03:15;;;;;;;26.50;18.37;;;5.30;99.90;;;;;;4923008;29;20518;-88
2022/03/21 05:05:41;;;;;;;23.50;18.90;;;;;;;;;;4936878;29;20988;-90
2022/03/21 05:08:07;;;;;;;22.97;17.03;;;7.00;99.90;;;;;;4907755;29;20444;-89
2022/03/21 05:10:33;;;;;;;24.90;17.10;;;;;;;;;;4903795;29;20431;-89
2022/03/21 05:12:59;;;;;;;21.73;16.63;;;6.90;99.90;;;;;;4907556;29;20212;-88
2022/03/21 05:15:25;;;;;;;20.50;17.90;;;7.20;99.90;;;;;;4937797;29;20500;-89
2022/03/21 05:17:52;;;;;;;21.07;17.07;;;7.20;99.90;;;;;;4902130;29;20448;-88
2022/03/21 05:20:19;;;;;;;21.63;15.00;;;7.10;99.90;;;;;;4934852;29;20440;-89
2022/03/21 05:31:14;;;;;;;31.20;18.10;;;7.10;99.90;;;;;;4916107;29;20427;-90
2022/03/21 05:36:26;;;;;;;24.92;17.08;;;7.20;99.90;;;;;;4924976;29;20222;-88
2022/03/21 05:39:17;;;;;;;27.57;18.50;;;5.80;99.90;;;;;;4919186;29;20180;-90
2022/03/21 05:41:42;;;;;;;30.67;18.40;;;6.60;99.90;;;;;;4882198;29;20449;-88
2022/03/21 05:44:11;;;;;;;30.50;21.80;;;7.50;99.90;;;;;;4934560;29;20448;-89
2022/03/21 05:46:37;;;;;;;28.90;20.15;;;7.50;99.90;;;;;;4916733;29;20181;-90
2022/03/21 05:49:03;;;;;;;27.33;20.43;;;6.40;99.90;;;;;;4944924;23;20729;-78
2022/03/21 05:51:32;;;;;;;32.80;20.55;;;6.10;99.90;;;;;;4923624;29;20935;-78
2022/03/21 05:54:00;;;;;;;28.48;18.92;;;6.10;99.90;;;;;;4920954;29;20238;-79
2022/03/21 05:56:27;;;;;;;24.60;17.27;;;6.00;99.90;;;;;;4929088;29;20194;-78
2022/03/21 05:58:53;;;;;;;26.30;18.30;;;6.00;99.90;;;;;;4218380;29;10000838;-78
2022/03/21 06:01:22;;;;;;;22.13;18.20;;;6.00;99.90;;;;;;4887549;29;20446;-78
2022/03/21 06:03:53;;;;;;;29.02;19.05;;;6.10;99.90;;;;;;4881145;29;20448;-78
2022/03/21 06:06:22;;;;;;;29.97;18.00;;;6.10;99.90;;;;;;4886720;29;20246;-78
2022/03/21 06:08:49;;;;;;;30.20;20.70;;;6.10;99.90;;;;;;4887232;29;20452;-79
2022/03/21 06:11:15;;;;;;;25.00;18.92;;;6.10;99.90;;;;;;4915368;29;20867;-79
2022/03/21 06:13:43;;;;;;;28.17;18.07;;;6.10;99.90;;;;;;4902010;29;20232;-79
2022/03/21 06:16:10;;;;;;;27.58;18.90;;;6.20;99.90;;;;;;4897392;29;20189;-79
2022/03/21 06:18:37;;;;;;;29.00;21.93;;;6.20;99.90;;;;;;4883893;29;20212;-78
2022/03/21 06:21:05;;;;;;;28.83;19.50;;;6.30;99.90;;;;;;4885550;29;20948;-79
2022/03/21 06:23:31;;;;;;;27.87;18.90;;;6.60;99.90;;;;;;4898226;29;20553;-78
2022/03/21 06:26:00;;;;;;;20.83;16.23;;;6.50;99.90;;;;;;4900719;29;20523;-78
2022/03/21 06:28:27;;;;;;;19.65;16.38;;;6.60;99.90;;;;;;4905904;29;20524;-79
2022/03/21 06:30:53;;;;;;;22.40;16.03;;;6.90;99.90;;;;;;4906860;29;20259;-77
2022/03/21 06:33:25;;;;;;;20.10;14.80;;;7.00;99.90;;;;;;4885957;29;20488;-80
2022/03/21 06:35:51;;;;;;;16.03;13.23;;;7.30;99.90;;;;;;4902144;29;20207;-79
2022/03/21 06:38:17;;;;;;;16.40;13.40;;;7.50;99.90;;;;;;4869915;29;20444;-79
2022/03/21 06:40:42;;;;;;;17.40;13.70;;;7.70;99.90;;;;;;4889930;29;20995;-78
2022/03/21 06:43:09;;;;;;;20.30;14.20;;;7.90;99.90;;;;;;4895809;29;20862;-79
2022/03/21 06:45:35;;;;;;;20.73;12.83;;;7.90;99.90;;;;;;4898469;29;20200;-76
2022/03/21 06:48:02;;;;;;;15.47;13.90;;;8.10;99.90;;;;;;4896398;29;20445;-79
2022/03/21 06:50:27;;;;;;;17.17;14.10;;;8.20;99.90;;;;;;4885146;29;20442;-79
2022/03/21 06:52:54;;;;;;;15.87;14.20;;;8.50;99.90;;;;;;4891258;29;20484;-79
2022/03/21 06:55:20;;;;;;;17.97;14.90;;;8.70;99.90;;;;;;4892302;29;20665;-79
2022/03/21 06:57:46;;;;;;;14.73;13.07;;;9.10;99.90;;;;;;4897069;29;20446;-78
2022/03/21 07:00:13;;;;;;;23.17;14.50;;;9.50;99.90;;;;;;4901993;29;20455;-78
2022/03/21 07:02:40;;;;;;;18.00;14.23;;;9.70;99.90;;;;;;4892441;29;20972;-79
2022/03/21 07:05:07;;;;;;;21.37;16.43;;;9.80;99.90;;;;;;4901084;29;20681;-77
2022/03/21 07:07:33;;;;;;;16.50;14.80;;;10.20;99.90;;;;;;4888066;29;20539;-79
2022/03/21 07:09:59;;;;;;;17.43;13.77;;;10.50;99.90;;;;;;4898449;29;20474;-78
2022/03/21 07:12:26;;;;;;;23.63;14.27;;;10.80;99.90;;;;;;4902025;29;20511;-78
2022/03/21 07:14:52;;;;;;;17.10;15.40;;;11.10;99.90;;;;;;4906404;29;20447;-80
2022/03/21 07:17:21;;;;;;;16.03;13.93;;;11.70;99.90;;;;;;4900154;29;20432;-79
2022/03/21 07:19:47;;;;;;;16.33;14.60;;;11.90;99.90;;;;;;4901420;29;20435;-79
2022/03/21 07:22:13;;;;;;;18.87;15.73;;;12.10;99.90;;;;;;4895512;29;20438;-78
2022/03/21 07:24:39;;;;;;;21.13;14.67;;;12.40;99.90;;;;;;4898186;29;20460;-79
2022/03/21 07:27:05;;;;;;;16.53;14.43;;;12.40;99.90;;;;;;4897602;29;21003;-78
2022/03/21 07:29:31;;;;;;;18.57;14.63;;;12.70;99.90;;;;;;4899612;29;20274;-79
2022/03/21 07:31:57;;;;;;;17.67;15.50;;;12.70;99.90;;;;;;4900858;29;20527;-79
2022/03/21 07:34:23;;;;;;;18.70;16.43;;;13.20;99.90;;;;;;4899337;29;20367;-78
2022/03/21 07:36:50;;;;;;;18.60;15.60;;;13.70;99.90;;;;;;4880132;29;20466;-78
2022/03/21 07:39:16;;;;;;;24.50;16.00;;;14.00;99.90;;;;;;4887844;29;20452;-79
2022/03/21 07:41:42;;;;;;;22.53;17.23;;;14.10;99.90;;;;;;4883850;29;21001;-80
2022/03/21 07:44:08;;;;;;;26.93;19.70;;;14.20;99.90;;;;;;4878006;29;20771;-79
2022/03/21 07:49:17;;;;;;;18.83;16.77;;;15.40;98.30;;;;;;4902195;29;20622;-79
2022/03/21 07:51:43;;;;;;;18.20;16.40;;;16.00;96.00;;;;;;4883571;29;20555;-79
2022/03/21 07:54:13;;;;;;;26.57;18.80;;;16.50;93.10;;;;;;4882479;29;20195;-78
2022/03/21 07:56:41;;;;;;;19.13;17.17;;;16.50;91.00;;;;;;4901558;29;20203;-81
2022/03/21 07:59:07;;;;;;;19.27;17.27;;;16.90;87.50;;;;;;4887711;29;20514;-81
2022/03/21 08:01:34;;;;;;;21.20;18.03;;;17.30;78.60;;;;;;4902181;29;20539;-79
2022/03/21 08:04:03;;;;;;;19.90;16.63;;;17.80;73.40;;;;;;4903541;29;20274;-79
2022/03/21 08:06:29;;;;;;;20.47;18.57;;;19.00;68.30;;;;;;4903415;29;20444;-77
2022/03/21 08:09:16;;;;;;;26.60;18.20;;;18.60;58.90;;;;;;4934360;23;20541;-94
2022/03/21 08:11:51;;;;;;;19.60;17.70;;;18.80;57.30;;;;;;4958642;23;20440;-84
2022/03/21 08:17:50;;;;;;;19.83;17.73;;;21.10;52.20;;;;;;4934589;29;20427;-85
2022/03/21 08:20:39;;;;;;;19.33;17.53;;;20.90;46.30;;;;;;4946906;29;20438;-85
2022/03/21 08:23:15;;;;;;;19.20;17.50;;;18.10;43.60;;;;;;4913969;29;20507;-86
2022/03/21 08:26:10;;;;;;;21.57;19.63;;;21.00;43.50;;;;;;4948253;29;20438;-86
2022/03/21 08:28:38;;;;;;;20.40;18.40;;;21.10;43.40;;;;;;4914976;29;20452;-86
2022/03/21 08:31:06;;;;;;;19.73;17.73;;;21.50;42.20;;;;;;4910733;29;20455;-87
2022/03/21 08:33:38;;;;;;;23.53;19.37;;;21.30;40.30;;;;;;4925048;29;20571;-86
2022/03/21 08:36:06;;;;;;;20.70;17.87;;;22.20;38.80;;;;;;4577631;29;9999838;-88
2022/03/21 08:38:35;;;;;;;20.67;17.83;;;22.00;40.10;;;;;;4920583;29;20467;-82
2022/03/21 08:41:04;;;;;;;25.27;20.37;;;21.80;39.50;;;;;;4913367;29;20988;-86
2022/03/21 08:43:29;;;;;;;20.10;18.30;;;22.20;40.30;;;;;;4927382;29;20435;-87
2022/03/21 08:46:21;;;;;;;20.40;18.50;;;22.70;38.70;;;;;;4917251;29;21050;-87
2022/03/21 08:51:33;;;;;;;19.30;17.60;;;23.00;35.10;;;;;;4932144;29;20572;-87
2022/03/21 08:54:01;;;;;;;18.80;17.17;;;23.50;36.80;;;;;;4912366;29;20475;-87
2022/03/21 08:56:31;;;;;;;20.50;17.40;;;23.80;35.20;;;;;;4910660;29;20628;-88
2022/03/21 08:59:12;;;;;;;20.77;19.03;;;23.30;33.20;;;;;;4920961;29;20459;-88
2022/03/21 09:01:41;;;;;;;19.17;17.20;;;23.70;33.90;;;;;;4926246;29;20503;-89
2022/03/21 09:04:08;;;;;;;19.97;18.40;;;21.90;31.40;;;;;;4915675;29;20428;-86
2022/03/21 09:06:37;;;;;;;20.70;18.53;;;23.30;33.60;;;;;;4949695;28;21079;-88
2022/03/21 09:09:18;;;;;;;19.13;17.23;;;23.70;33.20;;;;;;4948526;29;20451;-88
2022/03/21 09:12:17;;;;;;;17.57;15.90;;;24.80;33.50;;;;;;4938587;29;20439;-89
2022/03/21 09:14:50;;;;;;;21.03;18.87;;;23.50;32.40;;;;;;4934515;29;20552;-85
2022/03/21 09:17:18;;;;;;;19.10;17.30;;;22.40;32.50;;;;;;4917654;29;20435;-86
2022/03/21 09:19:44;;;;;;;19.47;17.63;;;23.20;33.20;;;;;;4903790;29;20423;-89
2022/03/21 09:22:25;;;;;;;19.37;17.47;;;22.80;34.10;;;;;;4922201;29;20470;-89
2022/03/21 09:24:52;;;;;;;21.07;18.87;;;25.30;36.40;;;;;;4923048;29;20963;-90
2022/03/21 09:27:22;;;;;;;18.87;17.17;;;22.10;33.10;;;;;;4928454;29;20436;-86
2022/03/21 09:29:48;;;;;;;18.77;16.97;;;23.50;32.70;;;;;;4922933;29;20435;-86
2022/03/21 09:32:17;;;;;;;19.43;17.83;;;23.90;33.00;;;;;;4927634;29;20469;-88
2022/03/21 09:34:43;;;;;;;18.23;16.53;;;24.20;34.20;;;;;;4905881;29;20199;-85
2022/03/21 09:37:09;;;;;;;18.80;16.87;;;25.10;33.50;;;;;;4913691;29;20796;-88
2022/03/21 09:39:35;;;;;;;20.17;18.30;;;24.60;33.30;;;;;;4928215;29;20436;-87
2022/03/21 09:42:04;;;;;;;26.27;23.83;;;24.90;32.90;;;;;;4915242;29;20186;-89
2022/03/21 09:44:34;;;;;;;18.80;17.10;;;25.90;34.00;;;;;;4915973;29;20262;-88
2022/03/21 09:50:39;;;;;;;19.00;17.50;;;26.20;31.10;;;;;;4928416;29;20565;-89
2022/03/21 09:53:07;;;;;;;18.80;16.97;;;26.60;30.80;;;;;;4907932;29;20483;-85
2022/03/21 09:55:39;;;;;;;20.67;18.37;;;26.70;30.90;;;;;;4914600;29;20438;-86
2022/03/21 09:58:05;;;;;;;18.30;16.37;;;27.40;31.00;;;;;;4918902;29;20415;-85
2022/03/21 10:00:35;;;;;;;20.50;18.90;;;27.60;33.00;;;;;;4933997;29;20988;-87
2022/03/21 10:03:29;;;;;;;18.93;17.23;;;27.70;31.40;;;;;;4933407;29;20407;-84
2022/03/21 10:05:53;;;;;;;19.30;17.60;;;27.70;31.00;;;;;;4917263;29;20455;-82
2022/03/21 10:08:28;;;;;;;19.13;17.57;;;27.40;31.60;;;;;;4914319;29;20720;-83
2022/03/21 10:10:54;;;;;;;19.30;17.70;;;27.70;30.60;;;;;;4928574;29;20207;-84
2022/03/21 10:13:30;;;;;;;20.00;18.40;;;28.10;31.50;;;;;;4936836;29;20570;-85
2022/03/21 10:16:13;;;;;;;18.63;17.10;;;28.20;29.80;;;;;;4932345;29;20217;-83
2022/03/21 10:19:00;;;;;;;19.70;18.10;;;27.70;30.60;;;;;;4942432;28;20446;-82
2022/03/21 10:21:32;;;;;;;19.07;17.57;;;27.70;30.60;;;;;;4916749;29;20527;-85
2022/03/21 10:24:06;;;;;;;19.60;17.73;;;27.40;30.90;;;;;;4916622;29;20427;-84
2022/03/21 10:26:35;;;;;;;20.90;18.60;;;27.60;30.90;;;;;;4952589;28;20426;-86
2022/03/21 10:29:08;;;;;;;19.00;17.60;;;27.20;30.20;;;;;;4917274;29;20431;-86
2022/03/21 10:31:38;;;;;;;20.13;18.17;;;27.40;30.40;;;;;;4933248;29;20430;-85
2022/03/21 10:34:09;;;;;;;19.47;17.57;;;27.40;30.80;;;;;;4929953;29;20474;-87
2022/03/21 10:37:02;;;;;;;19.33;17.70;;;27.90;30.40;;;;;;4936935;29;20430;-85
2022/03/21 10:39:30;;;;;;;20.40;18.60;;;27.60;30.30;;;;;;4927513;29;20468;-84
2022/03/21 10:42:04;;;;;;;19.30;17.60;;;27.70;30.50;;;;;;4920664;29;20943;-84
2022/03/21 10:44:33;;;;;;;19.20;17.40;;;27.50;30.50;;;;;;4924152;29;20489;-82
2022/03/21 10:47:03;;;;;;;18.40;16.83;;;27.40;31.20;;;;;;4911802;29;20502;-84
2022/03/21 10:49:33;;;;;;;17.73;16.20;;;27.30;31.30;;;;;;4918631;29;20451;-81
2022/03/21 10:52:05;;;;;;;18.57;16.47;;;27.00;31.10;;;;;;4920179;29;20874;-84
2022/03/21 10:54:38;;;;;;;20.37;18.43;;;27.30;31.10;;;;;;4929509;28;20434;-84
2022/03/21 10:57:06;;;;;;;19.57;17.73;;;27.30;31.20;;;;;;4933467;29;20511;-82
2022/03/21 10:59:34;;;;;;;19.20;17.37;;;27.10;31.10;;;;;;4241947;29;10000780;-84
2022/03/21 11:02:14;;;;;;;18.23;16.70;;;27.00;31.10;;;;;;4936077;28;20186;-83
2022/03/21 11:04:43;;;;;;;19.20;17.50;;;26.80;31.60;;;;;;4906643;29;20444;-84
2022/03/21 11:07:11;;;;;;;19.23;17.53;;;27.00;31.50;;;;;;4930821;28;20533;-85
2022/03/21 11:09:39;;;;;;;17.93;16.53;;;27.20;31.20;;;;;;4906085;29;20440;-85
2022/03/21 11:12:09;;;;;;;20.93;18.97;;;27.30;31.20;;;;;;4921933;29;20473;-84
2022/03/21 11:14:38;;;;;;;18.37;16.87;;;27.60;31.20;;;;;;4924403;29;20538;-84
2022/03/21 11:17:05;;;;;;;18.33;16.63;;;28.30;31.00;;;;;;4928979;28;20461;-82
2022/03/21 11:19:32;;;;;;;20.23;18.43;;;28.70;30.60;;;;;;4931426;29;20431;-83
2022/03/21 11:22:00;;;;;;;17.93;16.40;;;28.70;30.50;;;;;;4934999;28;20446;-84
2022/03/21 11:24:27;;;;;;;19.07;17.20;;;28.90;30.30;;;;;;4910334;29;20546;-83
2022/03/21 11:27:12;;;;;;;18.40;16.83;;;28.40;30.40;;;;;;4918248;29;20446;-83
2022/03/21 11:29:47;;;;;;;17.53;16.03;;;28.40;31.00;;;;;;4912931;29;20429;-84
2022/03/21 11:32:31;;;;;;;19.40;17.00;;;28.10;30.60;;;;;;4930979;28;20499;-84
2022/03/21 11:35:14;;;;;;;18.10;16.53;;;28.00;31.10;;;;;;4938865;28;20997;-82
2022/03/21 11:37:40;;;;;;;18.63;16.70;;;27.90;31.20;;;;;;4932684;29;20979;-83
2022/03/21 11:40:35;;;;;;;18.23;16.43;;;27.40;32.20;;;;;;4926316;29;20435;-84
2022/03/21 11:43:17;;;;;;;17.73;16.00;;;27.60;31.20;;;;;;4937896;28;20432;-84
2022/03/21 11:45:47;;;;;;;16.97;15.63;;;28.30;32.50;;;;;;4915253;29;20488;-82
2022/03/21 11:48:18;;;;;;;17.57;15.90;;;29.00;30.90;;;;;;4906522;29;20502;-82
2022/03/21 11:50:45;;;;;;;16.10;14.80;;;29.00;31.60;;;;;;4908639;29;20446;-82
2022/03/21 11:53:13;;;;;;;16.30;15.00;;;28.80;30.70;;;;;;4923305;29;20483;-83
2022/03/21 11:55:43;;;;;;;16.00;14.20;;;29.30;30.80;;;;;;4908955;29;20522;-83
2022/03/21 11:58:28;;;;;;;14.93;13.63;;;29.20;30.40;;;;;;4920620;29;20427;-81
2022/03/21 12:01:08;;;;;;;15.43;14.10;;;28.60;32.00;;;;;;4928099;28;21030;-84
2022/03/21 12:03:35;;;;;;;17.70;16.30;;;27.20;31.70;;;;;;4911434;28;21048;-82
2022/03/21 12:06:30;;;;;;;16.33;14.83;;;27.30;31.60;;;;;;4928689;29;20506;-81
2022/03/21 12:09:08;;;;;;;13.20;11.90;;;27.90;31.70;;;;;;4922276;29;20435;-82
2022/03/21 12:11:40;;;;;;;12.87;12.03;;;28.30;31.40;;;;;;4921425;29;20490;-83
2022/03/21 12:14:29;;;;;;;14.90;13.70;;;28.50;31.40;;;;;;4907822;29;20484;-86
2022/03/21 12:17:01;;;;;;;14.43;13.13;;;27.90;31.20;;;;;;4927945;29;20879;-83
2022/03/21 12:19:51;;;;;;;15.73;14.50;;;28.40;31.60;;;;;;4939475;28;20522;-83
2022/03/21 12:22:39;;;;;;;14.30;13.10;;;28.50;31.20;;;;;;4925700;28;20449;-81
2022/03/21 12:25:20;;;;;;;16.37;14.90;;;28.60;31.20;;;;;;4927426;29;20526;-83
2022/03/21 12:27:52;;;;;;;16.27;14.87;;;27.90;30.90;;;;;;4936777;28;21001;-84
2022/03/21 12:30:21;;;;;;;13.60;12.60;;;27.70;31.50;;;;;;4908830;29;20431;-85
2022/03/21 12:33:14;;;;;;;13.10;12.20;;;28.20;32.00;;;;;;4931019;28;20489;-84
2022/03/21 12:35:45;;;;;;;13.47;12.20;;;28.20;31.30;;;;;;4950797;28;20979;-81
2022/03/21 12:38:23;;;;;;;13.27;12.37;;;28.40;31.10;;;;;;4922656;29;20435;-85
2022/03/21 12:40:52;;;;;;;13.03;11.93;;;29.00;31.30;;;;;;4950623;28;20485;-84
2022/03/21 12:43:23;;;;;;;12.97;12.00;;;29.00;30.80;;;;;;4929707;29;20442;-82
2022/03/21 12:45:58;;;;;;;68.70;61.53;;;28.70;30.90;;;;;;4939764;28;20439;-82
2022/03/21 12:48:31;;;;;;;13.30;12.03;;;28.50;31.30;;;;;;4930765;29;20809;-83
2022/03/21 12:50:57;;;;;;;13.53;12.43;;;28.30;31.50;;;;;;4931790;29;20946;-85
2022/03/21 12:53:34;;;;;;;12.47;11.40;;;28.00;31.40;;;;;;4918427;29;20724;-85
2022/03/21 12:56:02;;;;;;;14.47;13.17;;;27.90;32.20;;;;;;4913142;29;20509;-85
2022/03/21 12:58:30;;;;;;;14.57;13.20;;;27.60;31.50;;;;;;4311220;28;10001676;-83
2022/03/21 13:00:57;;;;;;;15.13;13.37;;;27.60;32.10;;;;;;4913910;29;20402;-83
2022/03/21 13:03:27;;;;;;;12.67;11.87;;;27.80;31.70;;;;;;4924776;29;20438;-81
2022/03/21 13:11:31;;;;;;;13.10;12.17;;;28.30;31.20;;;;;;4927586;29;20469;-82
2022/03/21 13:13:59;;;;;;;12.13;11.07;;;27.90;31.40;;;;;;4927564;28;21221;-81
2022/03/21 13:16:28;;;;;;;11.90;11.00;;;28.00;31.90;;;;;;4928425;29;20451;-82
2022/03/21 13:18:56;;;;;;;12.67;11.57;;;28.00;31.60;;;;;;4935053;28;21144;-83
2022/03/21 13:21:22;;;;;;;13.20;12.30;;;27.90;31.50;;;;;;4930622;28;20999;-83